createdAt,value
2022-10-17T00:01:53.871Z,8.15
2022-10-17T00:04:23.246Z,8.65
2022-10-17T00:06:52.532Z,10.57
2022-10-17T00:09:21.802Z,8.73
2022-10-17T00:11:51.076Z,9.00
2022-10-17T00:14:20.398Z,8.57
2022-10-17T00:16:49.665Z,10.70
2022-10-17T00:19:18.939Z,7.65
2022-10-17T00:21:48.298Z,8.82
2022-10-17T00:24:17.599Z,10.30
2022-10-17T00:26:46.883Z,8.52
2022-10-17T00:29:16.170Z,9.18
2022-10-17T00:31:45.502Z,10.20
2022-10-17T00:34:14.832Z,8.70
2022-10-17T00:36:44.224Z,11.18
2022-10-17T00:39:13.533Z,9.32
2022-10-17T00:41:43.120Z,7.97
2022-10-17T00:44:34.214Z,8.38
2022-10-17T00:47:09.204Z,10.38
2022-10-17T00:49:39.981Z,13.52
2022-10-17T00:52:14.579Z,7.40
2022-10-17T00:54:48.898Z,11.55
2022-10-17T00:57:19.683Z,9.23
2022-10-17T00:59:54.275Z,8.23
2022-10-17T01:02:25.126Z,8.98
2022-10-17T01:04:57.115Z,10.48
2022-10-17T01:07:26.610Z,10.55
2022-10-17T01:09:56.379Z,9.88
2022-10-17T01:12:35.405Z,12.35
2022-10-17T01:15:17.113Z,8.98
2022-10-17T01:18:18.751Z,10.32
2022-10-17T01:21:06.946Z,10.23
2022-10-17T01:23:55.025Z,9.93
2022-10-17T01:26:42.810Z,9.95
2022-10-17T01:30:14.140Z,11.00
2022-10-17T01:32:51.125Z,10.65
2022-10-17T01:36:05.664Z,9.95
2022-10-17T01:38:45.739Z,8.52
2022-10-17T01:41:28.027Z,9.93
2022-10-17T01:44:03.172Z,9.15
2022-10-17T01:46:44.790Z,10.05
2022-10-17T01:49:17.222Z,9.77
2022-10-17T01:51:54.439Z,9.00
2022-10-17T01:54:49.376Z,9.05
2022-10-17T01:57:36.882Z,10.93
2022-10-17T02:00:11.267Z,9.38
2022-10-17T02:02:44.930Z,8.10
2022-10-17T02:05:15.114Z,8.95
2022-10-17T02:07:44.827Z,10.73
2022-10-17T02:10:24.505Z,11.30
2022-10-17T02:13:02.327Z,8.10
2022-10-17T02:15:39.354Z,8.60
2022-10-17T02:18:19.478Z,9.98
2022-10-17T02:21:03.428Z,10.50
2022-10-17T02:23:42.408Z,10.60
2022-10-17T02:26:28.647Z,8.52
2022-10-17T02:29:18.594Z,9.98
2022-10-17T02:31:57.241Z,8.82
2022-10-17T02:34:39.181Z,13.23
2022-10-17T02:37:11.098Z,7.75
2022-10-17T02:39:42.776Z,10.02
2022-10-17T02:42:16.584Z,13.13
2022-10-17T02:44:48.330Z,8.85
2022-10-17T02:47:27.242Z,10.20
2022-10-17T02:50:01.231Z,8.63
2022-10-17T02:52:44.503Z,10.25
2022-10-17T02:55:21.892Z,9.27
2022-10-17T02:58:13.368Z,10.35
2022-10-17T03:00:44.123Z,9.65
2022-10-17T03:03:32.171Z,8.75
2022-10-17T03:06:04.909Z,10.75
2022-10-17T03:08:34.238Z,7.90
2022-10-17T03:11:03.635Z,9.88
2022-10-17T03:13:36.230Z,13.75
2022-10-17T03:16:08.947Z,8.10
2022-10-17T03:18:38.882Z,10.10
2022-10-17T03:21:08.517Z,8.85
2022-10-17T03:23:38.322Z,10.70
2022-10-17T03:26:09.864Z,8.48
2022-10-17T03:28:39.674Z,9.50
2022-10-17T03:31:13.866Z,8.10
2022-10-17T03:33:43.819Z,7.88
2022-10-17T03:36:16.551Z,10.23
2022-10-17T03:38:48.115Z,9.07
2022-10-17T03:41:19.350Z,8.20
2022-10-17T03:43:48.923Z,9.68
2022-10-17T03:49:08.827Z,9.70
2022-10-17T03:51:38.979Z,10.27
2022-10-17T03:54:13.675Z,8.60
2022-10-17T03:56:43.936Z,8.93
2022-10-17T03:59:17.785Z,9.52
2022-10-17T04:01:55.403Z,10.18
2022-10-17T04:04:25.246Z,10.30
2022-10-17T04:06:54.518Z,11.50
2022-10-17T04:09:23.935Z,9.95
2022-10-17T04:11:59.720Z,11.43
2022-10-17T04:14:29.348Z,9.35
2022-10-17T04:16:59.036Z,9.10
2022-10-17T04:19:29.798Z,10.38
2022-10-17T04:21:59.443Z,8.63
2022-10-17T04:24:30.450Z,8.00
2022-10-17T04:27:08.714Z,9.07
2022-10-17T04:29:41.704Z,11.70
2022-10-17T04:32:19.147Z,9.48
2022-10-17T04:35:17.657Z,8.23
2022-10-17T04:37:52.003Z,9.13
2022-10-17T04:40:22.991Z,11.38
2022-10-17T04:42:54.966Z,10.10
2022-10-17T04:45:31.695Z,9.73
2022-10-17T04:48:04.834Z,10.27
2022-10-17T04:50:34.248Z,10.20
2022-10-17T04:53:29.631Z,8.40
2022-10-17T04:55:59.112Z,10.23
2022-10-17T04:58:28.591Z,8.32
2022-10-17T05:00:58.089Z,11.82
2022-10-17T05:03:30.884Z,10.63
2022-10-17T05:06:00.270Z,7.85
2022-10-17T05:08:29.547Z,12.75
2022-10-17T05:13:58.375Z,8.23
2022-10-17T05:16:29.142Z,9.70
2022-10-17T05:19:00.429Z,9.35
2022-10-17T05:21:37.377Z,10.27
2022-10-17T05:24:12.595Z,13.27
2022-10-17T05:26:42.530Z,10.43
2022-10-17T05:29:11.940Z,10.75
2022-10-17T05:31:47.389Z,8.90
2022-10-17T05:34:16.758Z,7.05
2022-10-17T05:36:47.683Z,9.35
2022-10-17T05:39:20.796Z,11.95
2022-10-17T05:41:52.792Z,8.88
2022-10-17T05:44:22.175Z,10.75
2022-10-17T05:46:56.796Z,8.10
2022-10-17T05:49:33.420Z,8.65
2022-10-17T05:52:13.455Z,8.27
2022-10-17T05:55:03.032Z,9.20
2022-10-17T05:57:32.418Z,10.52
2022-10-17T06:00:02.941Z,10.93
2022-10-17T06:02:43.649Z,9.82
2022-10-17T06:05:16.487Z,8.23
2022-10-17T06:07:46.278Z,9.43
2022-10-17T06:10:17.371Z,9.63
2022-10-17T06:12:47.259Z,11.10
2022-10-17T06:15:17.791Z,10.07
2022-10-17T06:17:52.830Z,11.18
2022-10-17T06:20:22.192Z,8.80
2022-10-17T06:22:52.275Z,7.90
2022-10-17T06:25:36.704Z,9.27
2022-10-17T06:28:06.587Z,8.63
2022-10-17T06:30:35.855Z,10.52
2022-10-17T06:33:05.548Z,8.15
2022-10-17T06:35:34.878Z,9.38
2022-10-17T06:38:04.444Z,11.65
2022-10-17T06:40:37.182Z,8.32
2022-10-17T06:43:07.427Z,11.13
2022-10-17T06:48:41.365Z,10.25
2022-10-17T06:51:25.083Z,10.90
2022-10-17T06:53:59.727Z,10.70
2022-10-17T06:56:36.138Z,9.27
2022-10-17T06:59:24.401Z,7.93
2022-10-17T07:02:05.380Z,9.75
2022-10-17T07:04:35.179Z,10.70
2022-10-17T07:07:04.961Z,8.77
2022-10-17T07:09:36.693Z,10.73
2022-10-17T07:12:08.389Z,11.90
2022-10-17T07:14:38.286Z,11.68
2022-10-17T07:17:07.710Z,8.57
2022-10-17T07:19:37.032Z,9.40
2022-10-17T07:22:06.364Z,13.80
2022-10-17T07:24:37.028Z,9.48
2022-10-17T07:27:21.150Z,8.27
2022-10-17T07:29:50.667Z,8.05
2022-10-17T07:32:26.480Z,8.40
2022-10-17T07:34:55.793Z,7.22
2022-10-17T07:37:25.069Z,9.77
2022-10-17T07:39:58.076Z,7.63
2022-10-17T07:42:28.555Z,9.10
2022-10-17T07:44:58.149Z,12.10
2022-10-17T07:47:31.424Z,11.32
2022-10-17T07:50:02.188Z,11.55
2022-10-17T07:52:31.855Z,10.07
2022-10-17T07:55:01.554Z,9.88
2022-10-17T07:57:31.004Z,8.80
2022-10-17T08:00:00.232Z,8.75
2022-10-17T08:02:30.900Z,9.57
2022-10-17T08:05:00.451Z,10.57
2022-10-17T08:07:29.800Z,8.75
2022-10-17T08:09:59.185Z,10.02
2022-10-17T08:12:32.528Z,9.68
2022-10-17T08:15:02.198Z,8.27
2022-10-17T08:17:31.503Z,7.30
2022-10-17T08:20:00.768Z,9.30
2022-10-17T08:22:30.318Z,9.68
2022-10-17T08:24:59.820Z,7.82
2022-10-17T08:27:29.051Z,7.72
2022-10-17T08:29:58.375Z,9.63
2022-10-17T08:32:30.487Z,10.18
2022-10-17T08:35:00.072Z,9.80
2022-10-17T08:37:30.444Z,12.52
2022-10-17T08:39:59.942Z,16.00
2022-10-17T08:43:02.108Z,9.88
2022-10-17T08:46:00.526Z,10.95
2022-10-17T08:48:33.946Z,15.25
2022-10-17T08:51:15.955Z,10.32
2022-10-17T08:53:52.331Z,10.00
2022-10-17T08:56:44.099Z,10.77
2022-10-17T08:59:16.536Z,13.15
2022-10-17T09:01:58.259Z,9.35
2022-10-17T09:05:05.026Z,10.65
2022-10-17T09:07:48.821Z,8.23
2022-10-17T09:10:31.448Z,9.77
2022-10-17T09:13:42.580Z,11.88
2022-10-17T09:16:41.684Z,13.07
2022-10-17T09:19:25.998Z,10.88
2022-10-17T09:21:59.981Z,12.50
2022-10-17T09:24:45.807Z,10.65
2022-10-17T09:27:25.280Z,10.98
2022-10-17T09:30:07.169Z,7.90
2022-10-17T09:32:41.099Z,8.25
2022-10-17T09:35:16.365Z,9.32
2022-10-17T09:37:46.255Z,9.65
2022-10-17T09:40:25.307Z,7.25
2022-10-17T09:42:55.124Z,9.98
2022-10-17T09:45:27.635Z,7.30
2022-10-17T09:48:02.580Z,9.25
2022-10-17T09:50:35.059Z,11.82
2022-10-17T09:53:18.440Z,8.52
2022-10-17T09:55:51.834Z,13.20
2022-10-17T09:58:23.240Z,9.23
2022-10-17T10:00:52.555Z,10.63
2022-10-17T10:03:22.997Z,10.90
2022-10-17T10:06:05.783Z,8.90
2022-10-17T10:08:38.772Z,10.70
2022-10-17T10:11:13.996Z,12.82
2022-10-17T10:13:43.648Z,13.50
2022-10-17T10:16:34.453Z,8.77
2022-10-17T10:19:07.041Z,7.55
2022-10-17T10:21:38.384Z,11.82
2022-10-17T10:24:17.378Z,11.25
2022-10-17T10:26:53.038Z,8.40
2022-10-17T10:29:36.265Z,9.77
2022-10-17T10:32:24.707Z,10.68
2022-10-17T10:34:59.011Z,12.50
2022-10-17T10:37:32.932Z,14.07
2022-10-17T10:40:05.597Z,8.73
2022-10-17T10:42:38.558Z,12.40
2022-10-17T10:45:42.947Z,10.50
2022-10-17T10:48:21.734Z,8.93
2022-10-17T10:50:58.736Z,8.07
2022-10-17T10:53:48.569Z,8.88
2022-10-17T10:56:30.961Z,12.55
2022-10-17T11:02:17.849Z,11.32
2022-10-17T11:04:55.937Z,9.68
2022-10-17T11:08:03.000Z,9.77
2022-10-17T11:11:06.494Z,12.75
2022-10-17T11:13:54.300Z,10.50
2022-10-17T11:16:42.627Z,9.05
2022-10-17T11:19:21.079Z,9.57
2022-10-17T11:21:55.687Z,11.23
2022-10-17T11:24:32.908Z,9.18
2022-10-17T11:27:05.761Z,9.15
2022-10-17T11:29:39.394Z,9.45
2022-10-17T11:32:16.304Z,8.38
2022-10-17T11:34:50.954Z,9.60
2022-10-17T11:37:28.143Z,10.55
2022-10-17T11:40:02.764Z,11.73
2022-10-17T11:42:37.543Z,11.48
2022-10-17T11:45:14.173Z,11.43
2022-10-17T11:47:54.367Z,9.73
2022-10-17T11:53:31.836Z,16.70
2022-10-17T11:56:03.787Z,11.63
2022-10-17T11:58:39.561Z,16.85
2022-10-17T12:01:15.275Z,10.88
2022-10-17T12:04:09.716Z,13.32
2022-10-17T12:07:20.250Z,13.57
2022-10-17T12:10:17.306Z,13.80
2022-10-17T12:12:48.205Z,11.15
2022-10-17T12:15:23.595Z,11.40
2022-10-17T12:18:06.676Z,11.85
2022-10-17T12:20:38.453Z,12.50
2022-10-17T12:23:23.192Z,13.40
2022-10-17T12:25:59.638Z,13.95
2022-10-17T12:28:45.089Z,14.38
2022-10-17T12:31:21.787Z,11.93
2022-10-17T12:33:56.468Z,10.32
2022-10-17T12:36:25.798Z,13.93
2022-10-17T12:39:04.240Z,13.80
2022-10-17T12:41:44.440Z,14.63
2022-10-17T12:44:16.824Z,10.68
2022-10-17T12:47:00.680Z,13.38
2022-10-17T12:49:56.498Z,10.98
2022-10-17T12:52:36.658Z,12.27
2022-10-17T12:55:12.264Z,11.30
2022-10-17T12:57:50.180Z,12.15
2022-10-17T13:00:25.617Z,12.18
2022-10-17T13:02:58.115Z,12.77
2022-10-17T13:05:32.562Z,11.82
2022-10-17T13:08:04.129Z,12.75
2022-10-17T13:10:39.653Z,10.73
2022-10-17T13:13:20.882Z,11.68
2022-10-17T13:15:54.637Z,11.30
2022-10-17T13:18:27.544Z,11.07
2022-10-17T13:21:07.931Z,9.85
2022-10-17T13:23:40.490Z,14.23
2022-10-17T13:26:14.687Z,11.63
2022-10-17T13:28:45.486Z,11.88
2022-10-17T13:31:34.568Z,11.85
2022-10-17T13:34:06.294Z,12.90
2022-10-17T13:36:37.615Z,11.20
2022-10-17T13:39:16.850Z,15.27
2022-10-17T13:41:46.508Z,14.82
2022-10-17T13:44:28.586Z,15.77
2022-10-17T13:46:59.412Z,14.13
2022-10-17T13:49:36.969Z,16.05
2022-10-17T13:52:09.023Z,13.10
2022-10-17T13:54:43.787Z,14.30
2022-10-17T13:57:23.976Z,11.75
2022-10-17T13:59:56.388Z,10.45
2022-10-17T14:02:28.536Z,17.33
2022-10-17T14:08:11.290Z,9.70
2022-10-17T14:10:43.911Z,12.07
2022-10-17T14:13:25.347Z,12.85
2022-10-17T14:15:57.482Z,10.88
2022-10-17T14:18:35.692Z,14.50
2022-10-17T14:24:16.403Z,13.93
2022-10-17T14:26:53.325Z,18.85
2022-10-17T14:29:34.628Z,12.07
2022-10-17T14:32:10.215Z,11.55
2022-10-17T14:34:42.376Z,15.30
2022-10-17T14:37:27.997Z,11.82
2022-10-17T14:39:57.874Z,12.77
2022-10-17T14:42:30.380Z,11.45
2022-10-17T14:45:09.637Z,11.32
2022-10-17T14:47:43.618Z,13.00
2022-10-17T14:50:13.383Z,13.98
2022-10-17T14:52:43.223Z,13.25
2022-10-17T14:55:30.131Z,10.25
2022-10-17T14:58:02.303Z,16.52
2022-10-17T15:03:01.097Z,13.65
2022-10-17T15:05:30.454Z,11.90
2022-10-17T15:08:02.068Z,11.20
2022-10-17T15:10:37.255Z,11.82
2022-10-17T15:15:56.227Z,13.77
2022-10-17T15:18:25.495Z,11.35
2022-10-17T15:21:04.585Z,12.13
2022-10-17T15:23:35.998Z,11.43
2022-10-17T15:26:05.344Z,12.65
2022-10-17T15:28:34.675Z,11.52
2022-10-17T15:31:04.012Z,15.52
2022-10-17T15:33:33.298Z,14.23
2022-10-17T15:36:03.162Z,10.20
2022-10-17T15:38:36.454Z,10.05
2022-10-17T15:41:05.745Z,15.73
2022-10-17T15:43:35.051Z,12.70
2022-10-17T15:46:05.075Z,13.82
2022-10-17T15:48:34.595Z,14.05
2022-10-17T15:51:03.853Z,12.80
2022-10-17T15:53:33.166Z,13.10
2022-10-17T15:56:03.001Z,15.43
2022-10-17T15:58:41.829Z,12.90
2022-10-17T16:01:22.899Z,11.52
2022-10-17T16:03:53.368Z,13.30
2022-10-17T16:06:24.489Z,11.60
2022-10-17T16:08:54.767Z,10.35
2022-10-17T16:11:37.916Z,13.15
2022-10-17T16:14:10.145Z,11.75
2022-10-17T16:19:09.134Z,11.57
2022-10-17T16:21:42.156Z,13.65
2022-10-17T16:24:13.835Z,14.23
2022-10-17T16:26:43.810Z,12.52
2022-10-17T16:29:13.176Z,10.90
2022-10-17T16:31:45.675Z,15.73
2022-10-17T16:34:16.761Z,10.25
2022-10-17T16:36:46.202Z,13.40
2022-10-17T16:39:15.579Z,14.35
2022-10-17T16:41:44.927Z,12.10
2022-10-17T16:44:17.512Z,10.82
2022-10-17T16:46:47.304Z,12.32
2022-10-17T16:49:18.517Z,14.93
2022-10-17T16:51:47.803Z,12.82
2022-10-17T16:54:17.091Z,13.20
2022-10-17T16:56:46.366Z,16.02
2022-10-17T16:59:15.630Z,14.63
2022-10-17T17:01:45.076Z,14.13
2022-10-17T17:04:14.380Z,17.30
2022-10-17T17:09:33.130Z,14.23
2022-10-17T17:12:02.560Z,16.75
2022-10-17T17:14:31.837Z,14.77
2022-10-17T17:17:01.104Z,12.10
2022-10-17T17:19:30.480Z,13.90
2022-10-17T17:21:59.767Z,13.07
2022-10-17T17:24:32.239Z,11.38
2022-10-17T17:27:01.653Z,13.55
2022-10-17T17:29:30.934Z,13.30
2022-10-17T17:32:00.232Z,13.45
2022-10-17T17:34:29.592Z,12.52
2022-10-17T17:36:58.871Z,14.55
2022-10-17T17:39:29.611Z,17.10
2022-10-17T17:41:58.976Z,15.18
2022-10-17T17:44:30.774Z,13.65
2022-10-17T17:47:00.133Z,13.63
2022-10-17T17:49:31.184Z,12.55
2022-10-17T17:54:50.245Z,18.80
2022-10-17T17:57:19.533Z,11.02
2022-10-17T17:59:49.834Z,11.77
2022-10-17T18:02:19.410Z,15.57
2022-10-17T18:04:49.033Z,13.20
2022-10-17T18:07:18.298Z,12.63
2022-10-17T18:09:48.143Z,14.30
2022-10-17T18:12:17.526Z,12.52
2022-10-17T18:14:46.821Z,16.33
2022-10-17T18:17:16.298Z,15.38
2022-10-17T18:19:45.593Z,11.65
2022-10-17T18:22:14.924Z,12.48
2022-10-17T18:24:44.278Z,14.10
2022-10-17T18:27:15.964Z,14.25
2022-10-17T18:29:48.769Z,14.80
2022-10-17T18:32:18.267Z,16.92
2022-10-17T18:34:47.606Z,13.20
2022-10-17T18:37:16.861Z,13.75
2022-10-17T18:39:48.467Z,13.90
2022-10-17T18:42:17.743Z,12.70
2022-10-17T18:44:47.052Z,14.95
2022-10-17T18:47:16.311Z,12.98
2022-10-17T18:49:45.671Z,13.85
2022-10-17T18:52:14.939Z,16.65
2022-10-17T18:54:44.289Z,14.60
2022-10-17T18:57:13.625Z,14.60
2022-10-17T18:59:42.888Z,15.63
2022-10-17T19:02:13.518Z,14.15
2022-10-17T19:04:42.905Z,14.82
2022-10-17T19:07:12.271Z,14.40
2022-10-17T19:09:42.615Z,15.80
2022-10-17T19:12:11.879Z,17.55
2022-10-17T19:14:41.252Z,16.30
2022-10-17T19:17:10.534Z,14.68
2022-10-17T19:19:40.019Z,16.38
2022-10-17T19:22:09.660Z,15.05
2022-10-17T19:24:38.974Z,18.08
2022-10-17T19:27:08.252Z,16.58
2022-10-17T19:29:37.512Z,14.70
2022-10-17T19:32:14.128Z,16.17
2022-10-17T19:34:46.223Z,16.27
2022-10-17T19:37:15.539Z,17.85
2022-10-17T19:39:45.110Z,15.55
2022-10-17T19:42:14.403Z,16.20
2022-10-17T19:44:43.824Z,14.15
2022-10-17T19:47:13.411Z,13.23
2022-10-17T19:49:46.501Z,12.95
2022-10-17T19:52:18.425Z,13.07
2022-10-17T19:54:47.672Z,17.27
2022-10-17T19:57:16.955Z,15.55
2022-10-17T19:59:46.251Z,14.85
2022-10-17T20:02:16.146Z,20.80
2022-10-17T20:04:54.493Z,16.95
2022-10-17T20:07:29.388Z,14.10
2022-10-17T20:09:58.658Z,15.98
2022-10-17T20:12:28.363Z,14.27
2022-10-17T20:14:57.797Z,14.82
2022-10-17T20:17:27.138Z,18.20
2022-10-17T20:19:56.487Z,11.68
2022-10-17T20:22:25.752Z,13.05
2022-10-17T20:24:55.020Z,16.08
2022-10-17T20:27:27.711Z,14.82
2022-10-17T20:30:01.660Z,14.75
2022-10-17T20:32:32.755Z,12.73
2022-10-17T20:35:02.273Z,11.90
2022-10-17T20:37:31.796Z,15.48
2022-10-17T20:40:29.432Z,14.95
2022-10-17T20:42:50.609Z,17.67
2022-10-17T20:45:32.021Z,13.52
2022-10-17T20:48:09.895Z,13.25
2022-10-17T20:50:40.229Z,11.35
2022-10-17T20:53:31.842Z,13.68
2022-10-17T20:56:14.131Z,12.73
2022-10-17T20:58:43.474Z,12.25
2022-10-17T21:01:13.509Z,15.52
2022-10-17T21:03:46.392Z,13.95
2022-10-17T21:06:17.372Z,11.57
2022-10-17T21:08:47.855Z,14.07
2022-10-17T21:11:27.457Z,15.73
2022-10-17T21:14:07.826Z,13.40
2022-10-17T21:16:38.917Z,11.45
2022-10-17T21:19:08.956Z,12.70
2022-10-17T21:21:40.926Z,13.30
2022-10-17T21:24:14.436Z,14.38
2022-10-17T21:26:45.009Z,15.52
2022-10-17T21:29:17.151Z,11.73
2022-10-17T21:34:18.953Z,11.35
2022-10-17T21:36:48.430Z,10.50
2022-10-17T21:39:18.361Z,11.88
2022-10-17T21:41:47.700Z,10.48
2022-10-17T21:44:19.757Z,11.90
2022-10-17T21:46:49.776Z,11.35
2022-10-17T21:49:22.124Z,11.55
2022-10-17T21:54:23.021Z,10.15
2022-10-17T21:56:53.287Z,9.48
2022-10-17T21:59:22.599Z,11.50
2022-10-17T22:01:51.926Z,9.13
2022-10-17T22:04:22.248Z,10.82
2022-10-17T22:06:53.666Z,12.25
2022-10-17T22:09:26.316Z,10.90
2022-10-17T22:11:58.191Z,15.90
2022-10-17T22:14:29.421Z,12.43
2022-10-17T22:16:58.744Z,11.02
2022-10-17T22:19:29.382Z,11.60
2022-10-17T22:21:58.735Z,11.13
2022-10-17T22:24:28.081Z,10.10
2022-10-17T22:26:57.379Z,12.15
2022-10-17T22:29:26.710Z,11.30
2022-10-17T22:31:56.035Z,11.48
2022-10-17T22:34:25.276Z,10.95
2022-10-17T22:36:54.812Z,11.77
2022-10-17T22:39:24.046Z,13.55
2022-10-17T22:41:53.368Z,9.55
2022-10-17T22:44:22.667Z,9.57
2022-10-17T22:46:52.114Z,12.48
2022-10-17T22:49:21.383Z,10.30
2022-10-17T22:51:50.647Z,8.40
2022-10-17T22:54:20.043Z,9.55
2022-10-17T22:56:49.335Z,10.63
2022-10-17T22:59:18.937Z,8.98
2022-10-17T23:01:48.321Z,9.65
2022-10-17T23:04:17.655Z,8.23
2022-10-17T23:06:46.921Z,12.20
2022-10-17T23:09:16.752Z,9.43
2022-10-17T23:11:46.072Z,9.45
2022-10-17T23:14:15.605Z,16.83
2022-10-17T23:16:44.873Z,17.40
2022-10-17T23:19:14.128Z,18.42
2022-10-17T23:21:43.453Z,22.73
2022-10-17T23:24:12.765Z,21.13
2022-10-17T23:26:42.175Z,15.00
2022-10-17T23:29:11.526Z,15.20
2022-10-17T23:31:40.851Z,17.75
2022-10-17T23:34:10.115Z,19.80
2022-10-17T23:36:39.431Z,15.35
2022-10-17T23:39:09.484Z,12.70
2022-10-17T23:41:38.746Z,9.63
2022-10-17T23:44:08.411Z,10.75
2022-10-17T23:46:37.664Z,10.05
2022-10-17T23:49:08.866Z,8.25
2022-10-17T23:51:38.182Z,10.10
2022-10-17T23:54:07.842Z,8.50
2022-10-17T23:56:37.449Z,8.98
2022-10-17T23:59:06.866Z,9.25
